Nearby METAR Reports

 

KHOT - Hot Springs, Arkansas, USA
Distance from station: W 8mi, 14km
Updated: 04/23/2018 10:53pm
Partly cloudy
Partly cloudy
 Wind from ENE
Wind: ENE 7 mph , 11 km/h
Temperature: 59°F , 15°C
Dew Point: 55°F , 13°C
Humidity: 88%
Barometer: 29.97 inHg , 1014.9 hPa
Clouds: Partly cloudy
Visibility: 10 miles , 16 km
Cloud details: Partly cloudy 6500 ft
2018/04/24 03:53 KHOT 240353Z AUTO 07006KT 10SM SCT065 15/13 A2997 RMK AO2 SLP146 T01500128
KMWT - Mount Ida, Arkansas, USA
Distance from station: W 36mi, 58km
Updated: 04/23/2018 10:53pm
Few Clouds
Few Clouds
 Wind from calm
Wind: Calm
Temperature: 59°F , 15°C
Dew Point: 55°F , 13°C
Humidity: 88%
Barometer: 29.96 inHg , 1014.6 hPa
Clouds: Few Clouds
Visibility: 9 miles , 14 km
Cloud details: Few Clouds 7000 ft
2018/04/24 03:53 KMWT 240353Z AUTO 00000KT 9SM FEW070 15/13 A2996 RMK AO2 SLP142 T01500128
 
KLIT - Little Rock, Arkansas, USA
Distance from station: ENE 45mi, 73km
Updated: 04/23/2018 10:53pm
Few Clouds
Few Clouds
 Wind from WNW
Wind: WNW 6 mph , 9 km/h
Temperature: 57°F , 14°C
Dew Point: 54°F , 12°C
Humidity: 88%
Barometer: 29.96 inHg , 1014.6 hPa
Clouds: Few Clouds
Visibility: 10 miles , 16 km
Cloud details: Few Clouds 6000 ft
2018/04/24 03:53 KLIT 240353Z 30005KT 10SM FEW060 14/12 A2996 RMK AO2 SLP148 T01390122
KLRF - Little Rock Afb, Arkansas, USA
Distance from station: NE 56mi, 89km
Updated: 04/23/2018 11:12pm
Overcast
Overcast
 Wind from calm
Wind: Calm
Temperature: 57°F , 14°C
Dew Point: 57°F , 14°C
Humidity: 100%
Barometer: 29.96 inHg , 1014.6 hPa
Clouds: Overcast
Visibility: 10 miles , 16 km
Cloud details: Overcast 4800 ft
2018/04/24 04:12 KLRF 240412Z AUTO 00000KT 10SM OVC048 14/14 A2996 RMK AO2 RAB03E12 SLP148